createdAt,value
2019-03-23T00:00:03.014Z,54.47
2019-03-23T00:01:13.860Z,54.46
2019-03-23T00:02:18.314Z,54.54
2019-03-23T00:03:23.234Z,54.62
2019-03-23T00:04:28.096Z,54.74
2019-03-23T00:05:32.620Z,54.79
2019-03-23T00:06:37.126Z,54.78
2019-03-23T00:07:41.899Z,54.72
2019-03-23T00:08:46.924Z,54.66
2019-03-23T00:09:51.639Z,54.55
2019-03-23T00:10:56.008Z,54.46
2019-03-23T00:12:00.741Z,54.36
2019-03-23T00:13:05.699Z,54.25
2019-03-23T00:14:10.497Z,54.13
2019-03-23T00:15:15.750Z,54.05
2019-03-23T00:16:20.268Z,53.99
2019-03-23T00:17:25.284Z,53.89
2019-03-23T00:18:29.655Z,53.82
2019-03-23T00:19:34.194Z,53.77
2019-03-23T00:20:38.875Z,53.72
2019-03-23T00:21:43.474Z,53.71
2019-03-23T00:22:47.912Z,53.68
2019-03-23T00:23:52.341Z,53.63
2019-03-23T00:24:56.947Z,53.57
2019-03-23T00:26:02.303Z,53.51
2019-03-23T00:27:06.753Z,53.48
2019-03-23T00:28:11.188Z,53.48
2019-03-23T00:29:15.871Z,53.49
2019-03-23T00:30:20.617Z,53.45
2019-03-23T00:31:24.977Z,53.42
2019-03-23T00:32:29.425Z,53.38
2019-03-23T00:33:34.104Z,53.39
2019-03-23T00:34:38.543Z,53.41
2019-03-23T00:35:43.297Z,53.39
2019-03-23T00:36:47.667Z,53.40
2019-03-23T00:37:52.134Z,53.39
2019-03-23T00:38:56.742Z,53.36
2019-03-23T00:40:01.421Z,53.36
2019-03-23T00:41:06.176Z,53.44
2019-03-23T00:42:11.040Z,53.50
2019-03-23T00:43:15.642Z,53.52
2019-03-23T00:44:20.499Z,53.60
2019-03-23T00:45:24.859Z,53.63
2019-03-23T00:46:29.609Z,53.67
2019-03-23T00:47:34.212Z,53.82
2019-03-23T00:48:39.225Z,53.99
2019-03-23T00:49:43.981Z,54.20
2019-03-23T00:50:48.849Z,54.49
2019-03-23T00:51:53.218Z,54.72
2019-03-23T00:52:57.824Z,54.83
2019-03-23T00:54:02.578Z,54.81
2019-03-23T00:55:07.635Z,54.81
2019-03-23T00:56:12.557Z,54.80
2019-03-23T00:57:16.927Z,54.80
2019-03-23T00:58:21.358Z,54.87
2019-03-23T00:59:25.714Z,54.87
2019-03-23T01:00:30.225Z,54.77
2019-03-23T01:01:35.325Z,54.65
2019-03-23T01:02:41.832Z,54.57
2019-03-23T01:03:47.241Z,54.46
2019-03-23T01:04:52.039Z,54.38
2019-03-23T01:05:56.476Z,54.28
2019-03-23T01:07:00.927Z,54.23
2019-03-23T01:08:05.538Z,54.15
2019-03-23T01:09:10.118Z,54.08
2019-03-23T01:10:14.911Z,54.05
2019-03-23T01:11:19.594Z,54.01
2019-03-23T01:12:24.015Z,54.01
2019-03-23T01:16:47.828Z,53.99
2019-03-23T01:17:52.494Z,53.93
2019-03-23T01:18:57.615Z,54.04
2019-03-23T01:20:02.400Z,54.19
2019-03-23T01:21:07.164Z,54.21
2019-03-23T01:22:12.071Z,54.24
2019-03-23T01:23:16.602Z,54.25
2019-03-23T01:24:21.375Z,54.29
2019-03-23T01:25:26.166Z,54.25
2019-03-23T01:26:31.052Z,54.30
2019-03-23T01:27:35.604Z,54.30
2019-03-23T01:28:40.373Z,54.33
2019-03-23T01:29:44.750Z,54.32
2019-03-23T01:30:49.817Z,54.36
2019-03-23T01:31:54.835Z,54.38
2019-03-23T01:32:59.570Z,54.37
2019-03-23T01:34:04.092Z,54.37
2019-03-23T01:35:09.402Z,54.34
2019-03-23T01:36:14.262Z,54.29
2019-03-23T01:37:19.039Z,54.29
2019-03-23T01:38:23.682Z,54.27
2019-03-23T01:39:29.050Z,54.29
2019-03-23T01:40:33.840Z,54.36
2019-03-23T01:41:38.218Z,54.58
2019-03-23T01:42:42.961Z,54.83
2019-03-23T01:43:47.446Z,54.94
2019-03-23T01:44:52.240Z,55.06
2019-03-23T01:45:56.999Z,55.16
2019-03-23T01:47:01.746Z,55.28
2019-03-23T01:48:07.066Z,55.43
2019-03-23T01:49:11.627Z,55.49
2019-03-23T01:50:16.155Z,55.49
2019-03-23T01:51:20.678Z,55.48
2019-03-23T01:52:25.493Z,55.42
2019-03-23T01:53:30.656Z,55.44
2019-03-23T01:54:35.106Z,55.47
2019-03-23T01:55:39.866Z,55.49
2019-03-23T01:56:44.592Z,55.49
2019-03-23T01:57:49.347Z,55.43
2019-03-23T01:58:53.820Z,55.36
2019-03-23T01:59:58.656Z,55.35
2019-03-23T02:01:03.177Z,55.30
2019-03-23T02:02:07.698Z,55.24
2019-03-23T02:03:12.318Z,55.19
2019-03-23T02:04:17.082Z,55.19
2019-03-23T02:05:21.770Z,55.19
2019-03-23T02:06:26.938Z,55.23
2019-03-23T02:07:31.580Z,55.18
2019-03-23T02:08:36.218Z,55.25
2019-03-23T02:09:40.581Z,55.35
2019-03-23T02:10:45.242Z,55.45
2019-03-23T02:11:49.927Z,55.54
2019-03-23T02:12:54.632Z,55.76
2019-03-23T02:13:59.070Z,56.19
2019-03-23T02:15:03.593Z,56.62
2019-03-23T02:16:08.101Z,56.92
2019-03-23T02:17:12.714Z,57.17
2019-03-23T02:18:17.165Z,57.32
2019-03-23T02:19:21.606Z,57.64
2019-03-23T02:20:26.046Z,57.82
2019-03-23T02:21:30.724Z,58.03
2019-03-23T02:22:35.416Z,58.13
2019-03-23T02:23:39.797Z,58.09
2019-03-23T02:24:44.162Z,57.88
2019-03-23T02:25:48.604Z,57.71
2019-03-23T02:26:53.076Z,57.53
2019-03-23T02:27:57.776Z,57.35
2019-03-23T02:29:02.179Z,57.23
2019-03-23T02:30:06.955Z,57.21
2019-03-23T02:31:11.966Z,57.23
2019-03-23T02:32:16.705Z,57.29
2019-03-23T02:33:21.286Z,57.41
2019-03-23T02:34:25.923Z,57.46
2019-03-23T02:35:30.414Z,57.55
2019-03-23T02:36:34.968Z,57.58
2019-03-23T02:37:39.812Z,57.52
2019-03-23T02:38:44.471Z,57.25
2019-03-23T02:39:48.916Z,57.03
2019-03-23T02:40:53.374Z,56.89
2019-03-23T02:41:58.114Z,56.75
2019-03-23T02:43:02.648Z,56.62
2019-03-23T02:44:07.168Z,56.55
2019-03-23T02:45:12.568Z,56.52
2019-03-23T02:46:16.947Z,56.53
2019-03-23T02:47:22.137Z,56.49
2019-03-23T02:48:26.674Z,56.47
2019-03-23T02:49:31.125Z,56.44
2019-03-23T02:50:35.849Z,56.40
2019-03-23T02:51:40.263Z,56.33
2019-03-23T02:52:44.630Z,56.23
2019-03-23T02:53:49.337Z,56.15
2019-03-23T02:54:54.104Z,56.07
2019-03-23T02:55:59.111Z,56.05
2019-03-23T02:57:03.725Z,55.99
2019-03-23T02:58:08.463Z,55.94
2019-03-23T02:59:12.977Z,55.91
2019-03-23T03:00:17.617Z,55.87
2019-03-23T03:01:22.309Z,55.86
2019-03-23T03:02:27.020Z,55.86
2019-03-23T03:03:31.720Z,55.88
2019-03-23T03:04:36.252Z,55.84
2019-03-23T03:05:40.701Z,55.80
2019-03-23T03:06:45.491Z,55.81
2019-03-23T03:07:50.179Z,55.84
2019-03-23T03:08:54.877Z,55.83
2019-03-23T03:09:59.398Z,55.88
2019-03-23T03:11:04.539Z,55.86
2019-03-23T03:12:08.977Z,55.85
2019-03-23T03:13:13.437Z,55.87
2019-03-23T03:14:17.797Z,55.88
2019-03-23T03:15:22.491Z,55.89
2019-03-23T03:16:26.929Z,55.86
2019-03-23T03:17:31.556Z,55.88
2019-03-23T03:18:36.005Z,55.87
2019-03-23T03:19:40.618Z,55.92
2019-03-23T03:20:45.230Z,55.99
2019-03-23T03:21:49.600Z,56.08
2019-03-23T03:22:54.367Z,56.12
2019-03-23T03:23:58.745Z,56.15
2019-03-23T03:25:03.427Z,56.16
2019-03-23T03:26:07.944Z,56.13
2019-03-23T03:27:12.378Z,56.07
2019-03-23T03:28:17.242Z,56.02
2019-03-23T03:29:21.625Z,56.02
2019-03-23T03:30:25.992Z,56.03
2019-03-23T03:31:30.383Z,56.05
2019-03-23T03:32:35.147Z,55.99
2019-03-23T03:33:39.747Z,55.96
2019-03-23T03:34:44.121Z,55.92
2019-03-23T03:35:48.665Z,55.95
2019-03-23T03:36:53.399Z,55.95
2019-03-23T03:37:58.310Z,55.95
2019-03-23T03:39:03.286Z,55.94
2019-03-23T03:40:08.048Z,55.91
2019-03-23T03:41:12.499Z,55.91
2019-03-23T03:42:16.961Z,55.94
2019-03-23T03:43:21.692Z,55.98
2019-03-23T03:44:26.549Z,56.01
2019-03-23T03:45:31.050Z,56.04
2019-03-23T03:46:35.569Z,56.07
2019-03-23T03:47:41.415Z,56.09
2019-03-23T03:48:46.118Z,56.07
2019-03-23T03:49:51.045Z,56.08
2019-03-23T03:50:56.128Z,56.09
2019-03-23T03:52:00.580Z,56.13
2019-03-23T03:53:05.158Z,56.18
2019-03-23T03:54:09.541Z,56.22
2019-03-23T03:55:14.001Z,56.27
2019-03-23T03:56:18.446Z,56.30
2019-03-23T03:57:23.133Z,56.34
2019-03-23T03:58:27.596Z,56.39
2019-03-23T03:59:32.427Z,56.37
2019-03-23T04:00:37.033Z,56.29
2019-03-23T04:01:41.474Z,56.20
2019-03-23T04:02:46.308Z,56.16
2019-03-23T04:03:50.753Z,56.13
2019-03-23T04:04:55.790Z,56.11
2019-03-23T04:06:00.554Z,56.15
2019-03-23T04:07:05.382Z,56.15
2019-03-23T04:08:11.880Z,56.13
2019-03-23T04:09:16.031Z,56.15
2019-03-23T04:10:20.480Z,56.23
2019-03-23T04:11:25.203Z,56.26
2019-03-23T04:12:29.642Z,56.28
2019-03-23T04:13:34.519Z,56.28
2019-03-23T04:14:38.909Z,56.27
2019-03-23T04:15:43.367Z,56.28
2019-03-23T04:16:48.114Z,56.28
2019-03-23T04:17:52.686Z,56.25
2019-03-23T04:18:57.072Z,56.25
2019-03-23T04:20:01.525Z,56.27
2019-03-23T04:21:06.509Z,56.28
2019-03-23T04:22:10.954Z,56.24
2019-03-23T04:23:15.356Z,56.17
2019-03-23T04:24:19.895Z,56.19
2019-03-23T04:25:24.270Z,56.19
2019-03-23T04:26:28.656Z,56.23
2019-03-23T04:27:33.441Z,56.24
2019-03-23T04:28:38.138Z,56.28
2019-03-23T04:29:42.597Z,56.31
2019-03-23T04:30:47.750Z,56.35
2019-03-23T04:31:52.182Z,56.41
2019-03-23T04:32:56.934Z,56.41
2019-03-23T04:34:01.722Z,56.40
2019-03-23T04:35:07.674Z,56.44
2019-03-23T04:36:12.110Z,56.41
2019-03-23T04:37:16.789Z,56.44
2019-03-23T04:38:22.960Z,56.44
2019-03-23T04:39:27.661Z,56.46
2019-03-23T04:40:32.019Z,56.50
2019-03-23T04:41:36.464Z,56.56
2019-03-23T04:42:40.828Z,56.62
2019-03-23T04:43:45.430Z,56.64
2019-03-23T04:44:49.883Z,56.63
2019-03-23T04:45:55.150Z,56.61
2019-03-23T04:46:59.760Z,56.59
2019-03-23T04:48:04.455Z,56.61
2019-03-23T04:49:08.903Z,56.63
2019-03-23T04:50:13.850Z,56.66
2019-03-23T04:51:18.687Z,56.68
2019-03-23T04:52:23.114Z,56.65
2019-03-23T04:53:27.979Z,56.62
2019-03-23T04:54:32.362Z,56.61
2019-03-23T04:55:37.047Z,56.60
2019-03-23T04:56:41.416Z,56.60
2019-03-23T04:57:45.855Z,56.62
2019-03-23T04:58:50.216Z,56.66
2019-03-23T04:59:54.666Z,56.66
2019-03-23T05:00:59.280Z,56.70
2019-03-23T05:02:03.851Z,56.68
2019-03-23T05:03:08.542Z,56.70
2019-03-23T05:04:13.598Z,56.73
2019-03-23T05:05:18.106Z,56.81
2019-03-23T05:06:22.558Z,56.88
2019-03-23T05:07:27.052Z,56.90
2019-03-23T05:08:33.659Z,56.93
2019-03-23T05:09:37.771Z,56.96
2019-03-23T05:10:42.216Z,56.99
2019-03-23T05:11:47.022Z,57.06
2019-03-23T05:12:51.706Z,57.11
2019-03-23T05:13:56.367Z,57.16
2019-03-23T05:15:00.836Z,57.13
2019-03-23T05:16:05.353Z,57.15
2019-03-23T05:17:09.805Z,57.20
2019-03-23T05:18:14.483Z,57.25
2019-03-23T05:19:19.175Z,57.27
2019-03-23T05:20:31.235Z,57.29
2019-03-23T05:21:35.605Z,57.32
2019-03-23T05:22:40.034Z,57.37
2019-03-23T05:23:45.865Z,57.38
2019-03-23T05:24:50.382Z,57.39
2019-03-23T05:25:54.752Z,57.36
2019-03-23T05:26:59.113Z,57.34
2019-03-23T05:28:03.632Z,57.31
2019-03-23T05:29:08.639Z,57.29
2019-03-23T05:30:13.188Z,57.28
2019-03-23T05:31:18.421Z,57.25
2019-03-23T05:32:23.617Z,57.21
2019-03-23T05:33:28.057Z,57.14
2019-03-23T05:34:32.446Z,57.10
2019-03-23T05:35:36.944Z,57.07
2019-03-23T05:36:41.467Z,57.02
2019-03-23T05:37:46.338Z,56.97
2019-03-23T05:38:51.195Z,56.94
2019-03-23T05:39:55.659Z,56.92
2019-03-23T05:41:00.363Z,56.91
2019-03-23T05:42:05.174Z,56.91
2019-03-23T05:44:35.366Z,56.85
2019-03-23T05:45:40.083Z,56.75
2019-03-23T05:46:44.454Z,56.78
2019-03-23T05:47:48.919Z,56.75
2019-03-23T05:48:53.925Z,56.75
2019-03-23T05:49:58.401Z,56.77
2019-03-23T05:51:02.801Z,56.75
2019-03-23T05:52:07.385Z,56.73
2019-03-23T05:53:11.895Z,56.69
2019-03-23T05:54:16.266Z,56.65
2019-03-23T05:55:20.715Z,56.64
2019-03-23T05:56:25.651Z,56.63
2019-03-23T05:57:30.084Z,56.62
2019-03-23T05:58:34.840Z,56.60
2019-03-23T05:59:39.449Z,56.61
2019-03-23T06:00:43.891Z,56.61
2019-03-23T06:01:48.259Z,56.62
2019-03-23T06:02:52.694Z,56.61
2019-03-23T06:03:57.311Z,56.61
2019-03-23T06:05:01.760Z,56.58
2019-03-23T06:06:06.274Z,56.57
2019-03-23T06:07:10.649Z,56.56
2019-03-23T06:08:15.668Z,56.54
2019-03-23T06:09:20.294Z,56.51
2019-03-23T06:10:24.917Z,56.47
2019-03-23T06:11:29.538Z,56.44
2019-03-23T06:12:34.973Z,56.40
2019-03-23T06:13:39.431Z,56.38
2019-03-23T06:14:43.912Z,56.37
2019-03-23T06:15:48.311Z,56.33
2019-03-23T06:16:52.990Z,56.31
2019-03-23T06:17:57.358Z,56.33
2019-03-23T06:19:01.811Z,56.34
2019-03-23T06:20:06.919Z,56.36
2019-03-23T06:21:11.374Z,56.36
2019-03-23T06:22:16.243Z,56.36
2019-03-23T06:23:20.688Z,56.38
2019-03-23T06:24:25.309Z,56.37
2019-03-23T06:25:29.931Z,56.38
2019-03-23T06:26:34.707Z,56.36
2019-03-23T06:27:39.229Z,56.29
2019-03-23T06:28:43.594Z,56.20
2019-03-23T06:29:47.963Z,56.16
2019-03-23T06:30:52.412Z,56.08
2019-03-23T06:31:56.938Z,56.01
2019-03-23T06:33:01.680Z,55.89
2019-03-23T06:34:06.544Z,55.73
2019-03-23T06:35:11.425Z,55.60
2019-03-23T06:36:16.216Z,55.42
2019-03-23T06:37:20.659Z,55.29
2019-03-23T06:38:25.424Z,55.15
2019-03-23T06:39:29.931Z,55.03
2019-03-23T06:40:34.736Z,54.91
2019-03-23T06:41:39.294Z,54.81
2019-03-23T06:42:43.751Z,54.67
2019-03-23T06:43:49.030Z,54.57
2019-03-23T06:44:53.405Z,54.54
2019-03-23T06:45:58.152Z,54.54
2019-03-23T06:47:03.014Z,54.54
2019-03-23T06:48:07.610Z,54.55
2019-03-23T06:49:12.570Z,54.50
2019-03-23T06:50:17.116Z,54.51
2019-03-23T06:51:21.824Z,54.48
2019-03-23T06:52:26.643Z,54.44
2019-03-23T06:53:31.102Z,54.50
2019-03-23T06:54:35.567Z,54.55
2019-03-23T06:55:40.227Z,54.56
2019-03-23T06:56:44.924Z,54.65
2019-03-23T06:57:49.442Z,54.83
2019-03-23T06:58:54.483Z,54.97
2019-03-23T06:59:59.244Z,55.05
2019-03-23T07:01:03.810Z,55.10
2019-03-23T07:02:08.306Z,55.16
2019-03-23T07:03:13.133Z,55.26
2019-03-23T07:04:17.705Z,55.37
2019-03-23T07:05:22.252Z,55.51
2019-03-23T07:06:27.050Z,55.69
2019-03-23T07:07:31.420Z,55.84
2019-03-23T07:08:36.036Z,56.00
2019-03-23T07:09:40.483Z,56.17
2019-03-23T07:10:45.012Z,56.30
2019-03-23T07:11:49.712Z,56.43
2019-03-23T07:12:54.151Z,56.55
2019-03-23T07:13:58.518Z,56.71
2019-03-23T07:15:03.052Z,56.83
2019-03-23T07:16:07.752Z,56.91
2019-03-23T07:17:12.296Z,56.97
2019-03-23T07:18:17.363Z,57.08
2019-03-23T07:19:22.071Z,57.16
2019-03-23T07:20:26.583Z,57.21
2019-03-23T07:21:31.290Z,57.29
2019-03-23T07:22:36.074Z,57.33
2019-03-23T07:23:40.611Z,57.39
2019-03-23T07:24:45.229Z,57.42
2019-03-23T07:25:50.023Z,57.46
2019-03-23T07:26:54.558Z,57.47
2019-03-23T07:27:59.376Z,57.52
2019-03-23T07:29:04.296Z,57.62
2019-03-23T07:30:10.818Z,57.69
2019-03-23T07:31:15.558Z,57.75
2019-03-23T07:32:20.092Z,57.80
2019-03-23T07:33:24.615Z,57.86
2019-03-23T07:34:29.393Z,57.92
2019-03-23T07:35:34.636Z,57.98
2019-03-23T07:36:39.424Z,58.01
2019-03-23T07:37:43.947Z,58.12
2019-03-23T07:38:48.687Z,58.14
2019-03-23T07:39:53.064Z,58.18
2019-03-23T07:40:57.804Z,58.24
2019-03-23T07:42:02.665Z,58.27
2019-03-23T07:43:07.029Z,58.29
2019-03-23T07:44:11.480Z,58.29
2019-03-23T07:45:16.697Z,58.28
2019-03-23T07:46:21.644Z,58.27
2019-03-23T07:47:26.160Z,58.25
2019-03-23T07:48:30.603Z,58.20
2019-03-23T07:49:35.301Z,58.27
2019-03-23T07:50:39.753Z,58.29
2019-03-23T07:51:44.194Z,58.33
2019-03-23T07:52:48.566Z,58.38
2019-03-23T07:53:53.246Z,58.41
2019-03-23T07:55:00.576Z,58.38
2019-03-23T07:56:05.204Z,58.38
2019-03-23T07:57:09.653Z,58.31
2019-03-23T07:58:14.022Z,58.29
2019-03-23T07:59:18.392Z,58.30
2019-03-23T08:00:23.015Z,58.30
2019-03-23T08:01:27.397Z,58.26
2019-03-23T08:02:32.012Z,58.29
2019-03-23T08:03:36.458Z,58.31
2019-03-23T08:04:41.280Z,58.41
2019-03-23T08:05:45.613Z,58.45
2019-03-23T08:06:50.224Z,58.43
2019-03-23T08:07:55.163Z,58.37
2019-03-23T08:08:59.777Z,58.27
2019-03-23T08:10:04.226Z,58.17
2019-03-23T08:11:08.846Z,58.06
2019-03-23T08:12:13.291Z,57.99
2019-03-23T08:13:18.044Z,57.93
2019-03-23T08:14:22.685Z,57.93
2019-03-23T08:15:27.381Z,57.89
2019-03-23T08:16:31.841Z,57.89
2019-03-23T08:17:36.987Z,57.83
2019-03-23T08:18:42.314Z,57.82
2019-03-23T08:19:47.145Z,57.77
2019-03-23T08:20:51.594Z,57.72
2019-03-23T08:21:56.471Z,57.68
2019-03-23T08:23:01.067Z,57.63
2019-03-23T08:24:05.761Z,57.55
2019-03-23T08:25:10.221Z,57.50
2019-03-23T08:26:14.693Z,57.46
2019-03-23T08:27:19.394Z,57.39
2019-03-23T08:28:23.899Z,57.28
2019-03-23T08:29:28.775Z,57.16
2019-03-23T08:30:33.270Z,57.05
2019-03-23T08:31:38.207Z,56.88
2019-03-23T08:32:42.880Z,56.73
2019-03-23T08:33:47.361Z,56.57
2019-03-23T08:34:51.856Z,56.37
2019-03-23T08:35:56.393Z,56.18
2019-03-23T08:37:02.147Z,56.06
2019-03-23T08:38:06.701Z,55.94
2019-03-23T08:39:11.161Z,55.87
2019-03-23T08:40:15.686Z,55.78
2019-03-23T08:41:20.306Z,55.75
2019-03-23T08:42:25.317Z,55.63
2019-03-23T08:43:29.952Z,55.48
2019-03-23T08:44:34.477Z,55.28
2019-03-23T08:45:38.975Z,55.02
2019-03-23T08:46:43.448Z,54.90
2019-03-23T08:47:47.975Z,54.77
2019-03-23T08:48:52.534Z,54.73
2019-03-23T08:49:59.601Z,54.71
2019-03-23T08:51:03.562Z,54.83
2019-03-23T08:52:08.413Z,54.93
2019-03-23T08:53:12.788Z,54.78
2019-03-23T08:54:17.238Z,54.75
2019-03-23T08:55:22.132Z,54.86
2019-03-23T08:56:26.727Z,54.81
2019-03-23T08:57:31.385Z,54.72
2019-03-23T08:58:33.787Z,54.59
2019-03-23T08:59:38.158Z,54.41
2019-03-23T09:00:42.535Z,54.27
2019-03-23T09:01:46.979Z,54.14
2019-03-23T09:02:51.946Z,53.93
2019-03-23T09:03:56.672Z,53.75
2019-03-23T09:05:01.948Z,53.71
2019-03-23T09:06:06.708Z,53.69
2019-03-23T09:07:11.614Z,53.60
2019-03-23T09:08:18.462Z,53.49
2019-03-23T09:09:22.233Z,53.50
2019-03-23T09:10:27.021Z,53.44
2019-03-23T09:11:31.638Z,53.23
2019-03-23T09:12:36.422Z,52.95
2019-03-23T09:13:41.085Z,52.81
2019-03-23T09:14:45.415Z,52.74
2019-03-23T09:15:49.874Z,52.55
2019-03-23T09:16:54.500Z,52.45
2019-03-23T09:17:58.891Z,52.21
2019-03-23T09:19:03.420Z,52.42
2019-03-23T09:20:09.024Z,52.14
2019-03-23T09:21:13.795Z,51.64
2019-03-23T09:22:18.819Z,51.36
2019-03-23T09:23:23.672Z,51.13
2019-03-23T09:24:28.134Z,50.93
2019-03-23T09:25:32.590Z,50.68
2019-03-23T09:26:37.053Z,50.40
2019-03-23T09:27:41.780Z,50.06
2019-03-23T09:28:46.512Z,49.91
2019-03-23T09:29:51.304Z,49.81
2019-03-23T09:30:55.762Z,49.33
2019-03-23T09:32:00.509Z,48.98
2019-03-23T09:33:05.018Z,48.75
2019-03-23T09:34:09.473Z,48.36
2019-03-23T09:35:14.044Z,48.17
2019-03-23T09:36:23.059Z,47.93
2019-03-23T09:37:25.402Z,47.79
2019-03-23T09:38:30.304Z,47.52
2019-03-23T09:39:35.229Z,47.30
2019-03-23T09:40:40.060Z,47.17
2019-03-23T09:41:44.813Z,47.10
2019-03-23T09:42:49.350Z,46.96
2019-03-23T09:43:53.855Z,46.83
2019-03-23T09:44:58.392Z,46.80
2019-03-23T09:46:05.926Z,46.74
2019-03-23T09:47:10.712Z,46.56
2019-03-23T09:48:15.176Z,46.42
2019-03-23T09:49:22.015Z,46.47
2019-03-23T09:50:25.964Z,46.17
2019-03-23T09:51:31.114Z,45.85
2019-03-23T09:52:35.944Z,45.66
2019-03-23T09:53:40.627Z,45.60
2019-03-23T09:54:45.485Z,45.57
2019-03-23T09:55:50.173Z,45.38
2019-03-23T09:56:55.245Z,45.24
2019-03-23T09:58:00.112Z,45.04
2019-03-23T09:59:04.653Z,44.85
2019-03-23T10:00:09.536Z,44.65
2019-03-23T10:01:14.157Z,44.47
2019-03-23T10:02:18.566Z,44.32
2019-03-23T10:03:23.085Z,44.28
2019-03-23T10:04:28.824Z,44.14
2019-03-23T10:05:33.514Z,43.97
2019-03-23T10:06:38.140Z,43.98
2019-03-23T10:07:42.513Z,43.87
2019-03-23T10:08:46.904Z,43.68
2019-03-23T10:09:51.281Z,43.63
2019-03-23T10:10:55.655Z,43.59
2019-03-23T10:12:00.430Z,43.62
2019-03-23T10:13:05.459Z,43.59
2019-03-23T10:14:10.022Z,43.66
2019-03-23T10:15:14.614Z,43.52
2019-03-23T10:16:19.082Z,43.44
2019-03-23T10:17:23.643Z,43.52
2019-03-23T10:18:28.180Z,43.44
2019-03-23T10:19:32.885Z,43.27
2019-03-23T10:20:37.340Z,43.12
2019-03-23T10:21:41.796Z,42.95
2019-03-23T10:22:46.316Z,42.87
2019-03-23T10:23:51.141Z,42.59
2019-03-23T10:24:55.949Z,42.44
2019-03-23T10:26:01.616Z,42.31
2019-03-23T10:27:06.489Z,42.31
2019-03-23T10:28:11.011Z,42.39
2019-03-23T10:29:18.809Z,42.51
2019-03-23T10:30:24.612Z,42.36
2019-03-23T10:31:29.765Z,42.32
2019-03-23T10:32:34.687Z,42.40
2019-03-23T10:33:39.081Z,42.45
2019-03-23T10:34:43.594Z,42.48
2019-03-23T10:35:48.406Z,42.41
2019-03-23T10:36:52.821Z,42.29
2019-03-23T10:37:57.472Z,41.79
2019-03-23T10:39:01.916Z,41.46
2019-03-23T10:40:07.963Z,41.22
2019-03-23T10:41:12.647Z,40.97
2019-03-23T10:42:17.859Z,40.77
2019-03-23T10:43:22.252Z,40.65
2019-03-23T10:44:27.032Z,40.54
2019-03-23T10:45:31.591Z,40.49
2019-03-23T10:46:36.444Z,40.25
2019-03-23T10:47:41.546Z,40.16
2019-03-23T10:48:46.796Z,39.82
2019-03-23T10:49:51.210Z,39.70
2019-03-23T10:50:55.684Z,39.77
2019-03-23T10:52:00.065Z,39.65
2019-03-23T10:53:04.440Z,39.44
2019-03-23T10:54:08.830Z,39.35
2019-03-23T10:55:13.370Z,39.33
2019-03-23T10:56:18.139Z,39.44
2019-03-23T10:57:22.597Z,39.59
2019-03-23T10:58:27.969Z,39.53
2019-03-23T10:59:32.437Z,39.24
2019-03-23T11:00:36.893Z,39.04
2019-03-23T11:01:41.908Z,38.94
2019-03-23T11:02:46.724Z,38.81
2019-03-23T11:03:51.194Z,38.39
2019-03-23T11:04:55.838Z,38.23
2019-03-23T11:06:03.024Z,38.20
2019-03-23T11:07:07.480Z,38.07
2019-03-23T11:08:12.139Z,37.98
2019-03-23T11:09:16.874Z,38.23
2019-03-23T11:10:21.596Z,38.46
2019-03-23T11:11:26.242Z,38.47
2019-03-23T11:12:30.990Z,37.92
2019-03-23T11:13:35.402Z,37.66
2019-03-23T11:14:40.134Z,37.68
2019-03-23T11:15:44.603Z,37.68
2019-03-23T11:16:49.096Z,37.66
2019-03-23T11:17:54.064Z,37.60
2019-03-23T11:18:58.476Z,37.59
2019-03-23T11:20:03.360Z,37.38
2019-03-23T11:21:07.946Z,37.29
2019-03-23T11:22:12.754Z,37.19
2019-03-23T11:23:17.231Z,36.94
2019-03-23T11:24:22.016Z,37.04
2019-03-23T11:25:26.579Z,37.03
2019-03-23T11:26:31.501Z,36.84
2019-03-23T11:27:36.220Z,36.86
2019-03-23T11:28:41.395Z,36.98
2019-03-23T11:29:46.671Z,36.94
2019-03-23T11:30:51.478Z,36.65
2019-03-23T11:31:55.915Z,36.28
2019-03-23T11:33:00.447Z,36.16
2019-03-23T11:34:05.425Z,36.19
2019-03-23T11:35:10.838Z,35.88
2019-03-23T11:36:15.513Z,36.07
2019-03-23T11:37:20.469Z,36.35
2019-03-23T11:38:24.875Z,36.39
2019-03-23T11:39:29.282Z,36.18
2019-03-23T11:40:34.260Z,36.27
2019-03-23T11:41:39.036Z,35.86
2019-03-23T11:42:49.768Z,35.66
2019-03-23T11:43:49.815Z,35.85
2019-03-23T11:44:54.374Z,35.94
2019-03-23T11:45:59.087Z,35.51
2019-03-23T11:47:03.464Z,35.66
2019-03-23T11:48:07.888Z,35.85
2019-03-23T11:49:12.721Z,35.53
2019-03-23T11:50:17.425Z,35.82
2019-03-23T11:51:22.087Z,35.97
2019-03-23T11:52:26.545Z,35.75
2019-03-23T11:53:30.934Z,35.66
2019-03-23T11:54:35.647Z,35.80
2019-03-23T11:55:40.614Z,35.83
2019-03-23T11:56:45.151Z,35.81
2019-03-23T11:57:49.907Z,36.14
2019-03-23T11:58:54.365Z,36.25
2019-03-23T11:59:58.860Z,35.99
2019-03-23T12:01:03.776Z,34.96
2019-03-23T12:02:08.157Z,35.14
2019-03-23T12:03:12.855Z,35.37
2019-03-23T12:04:17.385Z,35.50
2019-03-23T12:05:21.777Z,35.51
2019-03-23T12:06:26.184Z,35.58
2019-03-23T12:07:30.965Z,35.61
2019-03-23T12:08:35.345Z,35.22
2019-03-23T12:09:39.798Z,35.05
2019-03-23T12:10:44.326Z,34.91
2019-03-23T12:11:48.963Z,34.99
2019-03-23T12:12:53.510Z,35.09
2019-03-23T12:13:58.402Z,35.33
2019-03-23T12:15:02.961Z,35.12
2019-03-23T12:16:07.412Z,35.07
2019-03-23T12:17:12.108Z,35.15
2019-03-23T12:18:16.818Z,35.34
2019-03-23T12:19:21.448Z,35.35
2019-03-23T12:20:25.844Z,35.31
2019-03-23T12:21:30.386Z,35.00
2019-03-23T12:22:35.271Z,34.69
2019-03-23T12:23:39.739Z,34.66
2019-03-23T12:24:44.440Z,34.31
2019-03-23T12:25:49.062Z,34.24
2019-03-23T12:26:53.590Z,34.23
2019-03-23T12:27:58.560Z,34.29
2019-03-23T12:29:03.012Z,34.32
2019-03-23T12:30:08.391Z,33.98
2019-03-23T12:31:12.781Z,33.72
2019-03-23T12:32:17.731Z,33.43
2019-03-23T12:33:22.180Z,33.25
2019-03-23T12:34:26.802Z,32.91
2019-03-23T12:35:32.062Z,32.93
2019-03-23T12:36:36.587Z,33.15
2019-03-23T12:37:41.528Z,33.13
2019-03-23T12:38:45.894Z,33.06
2019-03-23T12:39:50.791Z,32.87
2019-03-23T12:40:55.794Z,32.92
2019-03-23T12:42:00.603Z,33.24
2019-03-23T12:43:05.173Z,33.39
2019-03-23T12:44:09.693Z,32.75
2019-03-23T12:45:14.343Z,32.33
2019-03-23T12:46:19.068Z,32.48
2019-03-23T12:47:23.778Z,32.59
2019-03-23T12:48:28.414Z,32.86
2019-03-23T12:49:33.037Z,32.73
2019-03-23T12:50:37.685Z,32.61
2019-03-23T12:51:42.209Z,32.59
2019-03-23T12:52:47.007Z,32.56
2019-03-23T12:53:51.643Z,32.28
2019-03-23T12:54:56.786Z,32.12
2019-03-23T12:56:02.876Z,32.20
2019-03-23T12:57:07.329Z,32.20
2019-03-23T12:58:12.285Z,32.02
2019-03-23T12:59:16.722Z,31.86
2019-03-23T13:00:21.427Z,31.36
2019-03-23T13:01:26.327Z,31.15
2019-03-23T13:02:30.954Z,30.71
2019-03-23T13:03:35.910Z,30.44
2019-03-23T13:04:40.527Z,30.52
2019-03-23T13:05:45.345Z,30.76
2019-03-23T13:06:49.863Z,30.93
2019-03-23T13:07:54.892Z,31.07
2019-03-23T13:08:59.273Z,31.09
2019-03-23T13:10:04.011Z,31.14
2019-03-23T13:11:08.730Z,31.30
2019-03-23T13:12:13.367Z,31.69
2019-03-23T13:13:17.817Z,31.69
2019-03-23T13:14:22.177Z,31.77
2019-03-23T13:15:26.833Z,31.73
2019-03-23T13:16:31.765Z,31.42
2019-03-23T13:17:36.235Z,31.66
2019-03-23T13:18:40.622Z,31.38
2019-03-23T13:19:44.987Z,31.28
2019-03-23T13:20:50.162Z,31.28
2019-03-23T13:21:54.624Z,31.16
2019-03-23T13:22:59.220Z,31.02
2019-03-23T13:24:03.698Z,31.08
2019-03-23T13:25:08.916Z,31.04
2019-03-23T13:26:13.629Z,31.23
2019-03-23T13:27:18.050Z,31.31
2019-03-23T13:28:22.669Z,31.36
2019-03-23T13:29:27.283Z,31.31
2019-03-23T13:30:31.763Z,31.31
2019-03-23T13:31:36.288Z,31.24
2019-03-23T13:32:40.830Z,31.08
2019-03-23T13:33:45.443Z,31.25
2019-03-23T13:34:50.064Z,31.32
2019-03-23T13:35:54.515Z,31.55
2019-03-23T13:36:59.145Z,31.19
2019-03-23T13:38:03.669Z,30.94
2019-03-23T13:39:08.129Z,30.85
2019-03-23T13:40:12.962Z,30.65
2019-03-23T13:41:17.445Z,30.89
2019-03-23T13:42:21.898Z,31.21
2019-03-23T13:43:26.273Z,31.46
2019-03-23T13:44:30.676Z,31.32
2019-03-23T13:45:42.544Z,31.16
2019-03-23T13:46:41.678Z,30.81
2019-03-23T13:47:46.212Z,30.97
2019-03-23T13:48:51.079Z,30.84
2019-03-23T13:49:55.693Z,30.86
2019-03-23T13:51:00.393Z,30.93
2019-03-23T13:52:04.945Z,31.05
2019-03-23T13:53:09.336Z,30.96
2019-03-23T13:54:14.025Z,31.03
2019-03-23T13:55:28.662Z,31.17
2019-03-23T13:56:33.397Z,31.28
2019-03-23T13:57:37.778Z,31.33